sensor_id;sensor_type;location;lat;lon;timestamp;temperature;humidity
68251;DHT22;55066;51.560;4.642;2023-05-21T00:01:09;13.95;83.21
68251;DHT22;55066;51.560;4.642;2023-05-21T00:03:43;14.28;80.86
68251;DHT22;55066;51.560;4.642;2023-05-21T00:06:13;14.37;81.38
68251;DHT22;55066;51.560;4.642;2023-05-21T00:08:40;14.04;81.49
68251;DHT22;55066;51.560;4.642;2023-05-21T00:11:06;14.02;82.40
68251;DHT22;55066;51.560;4.642;2023-05-21T00:13:31;14.13;83.23
68251;DHT22;55066;51.560;4.642;2023-05-21T00:15:57;14.12;83.12
68251;DHT22;55066;51.560;4.642;2023-05-21T00:18:22;13.89;82.13
68251;DHT22;55066;51.560;4.642;2023-05-21T00:20:50;13.95;82.97
68251;DHT22;55066;51.560;4.642;2023-05-21T00:23:15;13.68;84.91
68251;DHT22;55066;51.560;4.642;2023-05-21T00:25:43;13.64;83.75
68251;DHT22;55066;51.560;4.642;2023-05-21T00:28:09;13.81;84.46
68251;DHT22;55066;51.560;4.642;2023-05-21T00:30:35;13.77;84.07
68251;DHT22;55066;51.560;4.642;2023-05-21T00:33:00;13.74;85.09
68251;DHT22;55066;51.560;4.642;2023-05-21T00:35:27;13.77;84.19
68251;DHT22;55066;51.560;4.642;2023-05-21T00:37:53;13.98;83.26
68251;DHT22;55066;51.560;4.642;2023-05-21T00:40:19;13.79;83.11
68251;DHT22;55066;51.560;4.642;2023-05-21T00:42:45;13.84;82.49
68251;DHT22;55066;51.560;4.642;2023-05-21T00:45:12;13.79;83.58
68251;DHT22;55066;51.560;4.642;2023-05-21T00:47:40;13.60;82.90
68251;DHT22;55066;51.560;4.642;2023-05-21T00:50:07;13.56;84.49
68251;DHT22;55066;51.560;4.642;2023-05-21T00:52:33;13.42;83.39
68251;DHT22;55066;51.560;4.642;2023-05-21T00:55:06;13.67;82.30
68251;DHT22;55066;51.560;4.642;2023-05-21T00:57:33;13.70;85.19
68251;DHT22;55066;51.560;4.642;2023-05-21T00:59:58;13.58;83.57
68251;DHT22;55066;51.560;4.642;2023-05-21T01:02:24;13.56;83.98
68251;DHT22;55066;51.560;4.642;2023-05-21T01:04:53;13.78;80.96
68251;DHT22;55066;51.560;4.642;2023-05-21T01:07:22;13.63;85.85
68251;DHT22;55066;51.560;4.642;2023-05-21T01:09:47;13.58;81.77
68251;DHT22;55066;51.560;4.642;2023-05-21T01:12:13;13.51;83.65
68251;DHT22;55066;51.560;4.642;2023-05-21T01:14:40;13.57;82.23
68251;DHT22;55066;51.560;4.642;2023-05-21T01:17:06;13.94;80.30
68251;DHT22;55066;51.560;4.642;2023-05-21T01:19:34;13.98;81.93
68251;DHT22;55066;51.560;4.642;2023-05-21T01:22:05;13.50;82.03
68251;DHT22;55066;51.560;4.642;2023-05-21T01:24:31;13.53;81.38
68251;DHT22;55066;51.560;4.642;2023-05-21T01:27:00;13.40;82.93
68251;DHT22;55066;51.560;4.642;2023-05-21T01:29:26;13.20;86.49
68251;DHT22;55066;51.560;4.642;2023-05-21T01:32:11;13.30;83.71
68251;DHT22;55066;51.560;4.642;2023-05-21T01:34:52;13.57;83.08
68251;DHT22;55066;51.560;4.642;2023-05-21T01:37:31;13.19;88.16
68251;DHT22;55066;51.560;4.642;2023-05-21T01:40:07;13.23;86.75
68251;DHT22;55066;51.560;4.642;2023-05-21T01:42:35;13.42;83.24
68251;DHT22;55066;51.560;4.642;2023-05-21T01:45:02;13.40;83.50
68251;DHT22;55066;51.560;4.642;2023-05-21T01:47:31;13.30;86.00
68251;DHT22;55066;51.560;4.642;2023-05-21T01:49:58;13.53;81.31
68251;DHT22;55066;51.560;4.642;2023-05-21T01:52:26;13.60;82.01
68251;DHT22;55066;51.560;4.642;2023-05-21T01:54:51;13.56;84.37
68251;DHT22;55066;51.560;4.642;2023-05-21T01:57:19;13.50;86.68
68251;DHT22;55066;51.560;4.642;2023-05-21T01:59:45;13.30;85.63
68251;DHT22;55066;51.560;4.642;2023-05-21T02:02:12;13.13;89.36
68251;DHT22;55066;51.560;4.642;2023-05-21T02:04:38;13.23;89.43
68251;DHT22;55066;51.560;4.642;2023-05-21T02:07:06;13.18;89.91
68251;DHT22;55066;51.560;4.642;2023-05-21T02:09:34;13.36;88.42
68251;DHT22;55066;51.560;4.642;2023-05-21T02:12:00;13.64;86.90
68251;DHT22;55066;51.560;4.642;2023-05-21T02:14:25;13.64;82.69
68251;DHT22;55066;51.560;4.642;2023-05-21T02:16:51;13.85;85.06
68251;DHT22;55066;51.560;4.642;2023-05-21T02:19:17;13.81;86.55
68251;DHT22;55066;51.560;4.642;2023-05-21T02:21:42;13.89;81.51
68251;DHT22;55066;51.560;4.642;2023-05-21T02:24:08;13.88;82.31
68251;DHT22;55066;51.560;4.642;2023-05-21T02:26:33;13.98;83.23
68251;DHT22;55066;51.560;4.642;2023-05-21T02:28:59;13.97;85.94
68251;DHT22;55066;51.560;4.642;2023-05-21T02:31:24;14.12;84.40
68251;DHT22;55066;51.560;4.642;2023-05-21T02:33:50;13.92;84.52
68251;DHT22;55066;51.560;4.642;2023-05-21T02:36:19;13.91;83.28
68251;DHT22;55066;51.560;4.642;2023-05-21T02:38:45;13.94;82.71
68251;DHT22;55066;51.560;4.642;2023-05-21T02:41:11;13.88;82.95
68251;DHT22;55066;51.560;4.642;2023-05-21T02:43:36;13.78;83.59
68251;DHT22;55066;51.560;4.642;2023-05-21T02:46:04;13.91;82.24
68251;DHT22;55066;51.560;4.642;2023-05-21T02:48:30;13.88;87.88
68251;DHT22;55066;51.560;4.642;2023-05-21T02:50:55;13.91;80.53
68251;DHT22;55066;51.560;4.642;2023-05-21T02:53:21;14.08;85.92
68251;DHT22;55066;51.560;4.642;2023-05-21T02:55:46;14.11;83.55
68251;DHT22;55066;51.560;4.642;2023-05-21T02:58:13;14.06;81.90
68251;DHT22;55066;51.560;4.642;2023-05-21T03:00:39;14.00;87.80
68251;DHT22;55066;51.560;4.642;2023-05-21T03:03:06;14.04;81.66
68251;DHT22;55066;51.560;4.642;2023-05-21T03:05:31;14.28;81.61
68251;DHT22;55066;51.560;4.642;2023-05-21T03:07:57;14.43;84.47
68251;DHT22;55066;51.560;4.642;2023-05-21T03:10:22;14.18;87.15
68251;DHT22;55066;51.560;4.642;2023-05-21T03:12:48;14.09;87.57
68251;DHT22;55066;51.560;4.642;2023-05-21T03:15:14;14.13;85.87
68251;DHT22;55066;51.560;4.642;2023-05-21T03:17:40;14.02;88.68
68251;DHT22;55066;51.560;4.642;2023-05-21T03:20:11;14.09;84.47
68251;DHT22;55066;51.560;4.642;2023-05-21T03:22:42;14.18;84.82
68251;DHT22;55066;51.560;4.642;2023-05-21T03:25:09;14.29;87.30
68251;DHT22;55066;51.560;4.642;2023-05-21T03:27:35;14.22;82.07
68251;DHT22;55066;51.560;4.642;2023-05-21T03:30:04;14.26;84.72
68251;DHT22;55066;51.560;4.642;2023-05-21T03:32:32;14.18;84.73
68251;DHT22;55066;51.560;4.642;2023-05-21T03:35:06;14.18;86.13
68251;DHT22;55066;51.560;4.642;2023-05-21T03:37:32;14.20;85.88
68251;DHT22;55066;51.560;4.642;2023-05-21T03:39:58;14.19;89.06
68251;DHT22;55066;51.560;4.642;2023-05-21T03:42:23;14.23;84.01
68251;DHT22;55066;51.560;4.642;2023-05-21T03:44:52;14.29;83.88
68251;DHT22;55066;51.560;4.642;2023-05-21T03:47:36;14.30;86.90
68251;DHT22;55066;51.560;4.642;2023-05-21T03:50:04;14.15;86.40
68251;DHT22;55066;51.560;4.642;2023-05-21T03:52:30;14.34;85.08
68251;DHT22;55066;51.560;4.642;2023-05-21T03:54:56;14.34;88.50
68251;DHT22;55066;51.560;4.642;2023-05-21T03:57:21;14.37;82.74
68251;DHT22;55066;51.560;4.642;2023-05-21T03:59:47;14.39;83.85
68251;DHT22;55066;51.560;4.642;2023-05-21T04:02:13;14.29;88.71
68251;DHT22;55066;51.560;4.642;2023-05-21T04:04:40;14.28;88.66
68251;DHT22;55066;51.560;4.642;2023-05-21T04:07:06;14.20;86.33
68251;DHT22;55066;51.560;4.642;2023-05-21T04:09:39;14.26;88.05
68251;DHT22;55066;51.560;4.642;2023-05-21T04:12:05;14.32;84.40
68251;DHT22;55066;51.560;4.642;2023-05-21T04:14:32;14.22;87.23
68251;DHT22;55066;51.560;4.642;2023-05-21T04:16:58;14.19;88.73
68251;DHT22;55066;51.560;4.642;2023-05-21T04:19:24;14.01;90.37
68251;DHT22;55066;51.560;4.642;2023-05-21T04:21:49;13.94;87.41
68251;DHT22;55066;51.560;4.642;2023-05-21T04:24:16;13.97;91.08
68251;DHT22;55066;51.560;4.642;2023-05-21T04:27:03;14.01;90.88
68251;DHT22;55066;51.560;4.642;2023-05-21T04:29:30;14.06;90.20
68251;DHT22;55066;51.560;4.642;2023-05-21T04:31:55;14.00;90.95
68251;DHT22;55066;51.560;4.642;2023-05-21T04:34:22;13.95;90.69
68251;DHT22;55066;51.560;4.642;2023-05-21T04:36:47;14.06;89.55
68251;DHT22;55066;51.560;4.642;2023-05-21T04:39:14;14.06;90.51
68251;DHT22;55066;51.560;4.642;2023-05-21T04:41:40;14.11;89.15
68251;DHT22;55066;51.560;4.642;2023-05-21T04:44:07;14.16;87.17
68251;DHT22;55066;51.560;4.642;2023-05-21T04:46:33;14.28;88.73
68251;DHT22;55066;51.560;4.642;2023-05-21T04:49:02;14.20;86.28
68251;DHT22;55066;51.560;4.642;2023-05-21T04:51:29;14.44;86.59
68251;DHT22;55066;51.560;4.642;2023-05-21T04:53:54;14.41;87.79
68251;DHT22;55066;51.560;4.642;2023-05-21T04:56:20;14.47;86.09
68251;DHT22;55066;51.560;4.642;2023-05-21T04:58:54;14.67;87.18
68251;DHT22;55066;51.560;4.642;2023-05-21T05:01:20;14.68;85.54
68251;DHT22;55066;51.560;4.642;2023-05-21T05:03:53;14.73;85.31
68251;DHT22;55066;51.560;4.642;2023-05-21T05:06:19;14.68;84.97
68251;DHT22;55066;51.560;4.642;2023-05-21T05:08:46;14.78;87.96
68251;DHT22;55066;51.560;4.642;2023-05-21T05:11:13;14.67;85.87
68251;DHT22;55066;51.560;4.642;2023-05-21T05:13:45;14.81;87.94
68251;DHT22;55066;51.560;4.642;2023-05-21T05:16:17;14.83;84.10
68251;DHT22;55066;51.560;4.642;2023-05-21T05:18:52;14.87;88.29
68251;DHT22;55066;51.560;4.642;2023-05-21T05:21:21;14.85;88.07
68251;DHT22;55066;51.560;4.642;2023-05-21T05:23:47;15.14;87.44
68251;DHT22;55066;51.560;4.642;2023-05-21T05:26:16;15.21;85.93
68251;DHT22;55066;51.560;4.642;2023-05-21T05:28:41;15.09;88.87
68251;DHT22;55066;51.560;4.642;2023-05-21T05:31:07;15.21;88.64
68251;DHT22;55066;51.560;4.642;2023-05-21T05:33:33;15.44;84.91
68251;DHT22;55066;51.560;4.642;2023-05-21T05:35:58;15.15;88.73
68251;DHT22;55066;51.560;4.642;2023-05-21T05:38:24;15.31;85.08
68251;DHT22;55066;51.560;4.642;2023-05-21T05:40:50;15.22;88.91
68251;DHT22;55066;51.560;4.642;2023-05-21T05:43:16;15.33;87.07
68251;DHT22;55066;51.560;4.642;2023-05-21T05:45:44;15.36;87.73
68251;DHT22;55066;51.560;4.642;2023-05-21T05:48:15;15.50;85.77
68251;DHT22;55066;51.560;4.642;2023-05-21T05:50:41;15.53;84.37
68251;DHT22;55066;51.560;4.642;2023-05-21T05:53:07;15.53;86.91
68251;DHT22;55066;51.560;4.642;2023-05-21T05:55:33;15.52;85.64
68251;DHT22;55066;51.560;4.642;2023-05-21T05:57:58;15.36;88.46
68251;DHT22;55066;51.560;4.642;2023-05-21T06:00:25;15.50;85.80
68251;DHT22;55066;51.560;4.642;2023-05-21T06:02:50;15.52;88.48
68251;DHT22;55066;51.560;4.642;2023-05-21T06:05:19;15.47;87.87
68251;DHT22;55066;51.560;4.642;2023-05-21T06:07:44;15.66;85.38
68251;DHT22;55066;51.560;4.642;2023-05-21T06:10:10;15.70;84.86
68251;DHT22;55066;51.560;4.642;2023-05-21T06:12:36;15.84;86.89
68251;DHT22;55066;51.560;4.642;2023-05-21T06:15:02;16.12;85.18
68251;DHT22;55066;51.560;4.642;2023-05-21T06:17:29;15.90;84.18
68251;DHT22;55066;51.560;4.642;2023-05-21T06:19:55;15.83;86.19
68251;DHT22;55066;51.560;4.642;2023-05-21T06:22:21;15.98;84.13
68251;DHT22;55066;51.560;4.642;2023-05-21T06:24:47;16.19;85.71
68251;DHT22;55066;51.560;4.642;2023-05-21T06:27:13;16.00;86.06
68251;DHT22;55066;51.560;4.642;2023-05-21T06:29:39;16.05;85.86
68251;DHT22;55066;51.560;4.642;2023-05-21T06:32:07;16.21;84.77
68251;DHT22;55066;51.560;4.642;2023-05-21T06:34:32;16.28;85.05
68251;DHT22;55066;51.560;4.642;2023-05-21T06:36:58;16.43;84.94
68251;DHT22;55066;51.560;4.642;2023-05-21T06:39:23;16.11;85.61
68251;DHT22;55066;51.560;4.642;2023-05-21T06:41:49;16.09;83.85
68251;DHT22;55066;51.560;4.642;2023-05-21T06:44:33;16.25;84.44
68251;DHT22;55066;51.560;4.642;2023-05-21T06:47:09;15.90;86.99
68251;DHT22;55066;51.560;4.642;2023-05-21T06:49:34;16.18;85.67
68251;DHT22;55066;51.560;4.642;2023-05-21T06:52:00;16.59;86.17
68251;DHT22;55066;51.560;4.642;2023-05-21T06:54:26;16.55;84.90
68251;DHT22;55066;51.560;4.642;2023-05-21T06:56:52;16.52;84.71
68251;DHT22;55066;51.560;4.642;2023-05-21T06:59:17;16.62;83.77
68251;DHT22;55066;51.560;4.642;2023-05-21T07:01:43;16.45;85.71
68251;DHT22;55066;51.560;4.642;2023-05-21T07:04:09;16.62;85.47
68251;DHT22;55066;51.560;4.642;2023-05-21T07:06:35;16.87;84.33
68251;DHT22;55066;51.560;4.642;2023-05-21T07:09:03;16.81;84.80
68251;DHT22;55066;51.560;4.642;2023-05-21T07:11:29;17.18;82.85
68251;DHT22;55066;51.560;4.642;2023-05-21T07:13:57;17.15;82.91
68251;DHT22;55066;51.560;4.642;2023-05-21T07:16:24;17.35;80.11
68251;DHT22;55066;51.560;4.642;2023-05-21T07:18:50;17.42;82.80
68251;DHT22;55066;51.560;4.642;2023-05-21T07:21:15;16.80;85.26
68251;DHT22;55066;51.560;4.642;2023-05-21T07:23:41;17.31;83.71
68251;DHT22;55066;51.560;4.642;2023-05-21T07:26:11;17.28;82.86
68251;DHT22;55066;51.560;4.642;2023-05-21T07:28:37;17.12;84.17
68251;DHT22;55066;51.560;4.642;2023-05-21T07:31:03;16.94;85.21
68251;DHT22;55066;51.560;4.642;2023-05-21T07:33:34;17.39;84.01
68251;DHT22;55066;51.560;4.642;2023-05-21T07:36:00;17.83;81.21
68251;DHT22;55066;51.560;4.642;2023-05-21T07:38:27;18.08;78.41
68251;DHT22;55066;51.560;4.642;2023-05-21T07:40:53;17.46;82.83
68251;DHT22;55066;51.560;4.642;2023-05-21T07:43:19;17.42;83.46
68251;DHT22;55066;51.560;4.642;2023-05-21T07:45:45;17.14;84.84
68251;DHT22;55066;51.560;4.642;2023-05-21T07:48:10;17.70;82.13
68251;DHT22;55066;51.560;4.642;2023-05-21T07:50:45;17.89;81.70
68251;DHT22;55066;51.560;4.642;2023-05-21T07:53:13;17.70;83.10
68251;DHT22;55066;51.560;4.642;2023-05-21T07:55:39;17.75;82.15
68251;DHT22;55066;51.560;4.642;2023-05-21T07:58:20;17.50;83.10
68251;DHT22;55066;51.560;4.642;2023-05-21T08:00:47;17.73;81.22
68251;DHT22;55066;51.560;4.642;2023-05-21T08:03:14;17.63;82.73
68251;DHT22;55066;51.560;4.642;2023-05-21T08:05:43;17.69;83.23
68251;DHT22;55066;51.560;4.642;2023-05-21T08:08:17;18.53;79.73
68251;DHT22;55066;51.560;4.642;2023-05-21T08:10:44;17.96;83.20
68251;DHT22;55066;51.560;4.642;2023-05-21T08:13:11;18.51;80.86
68251;DHT22;55066;51.560;4.642;2023-05-21T08:15:36;18.34;81.58
68251;DHT22;55066;51.560;4.642;2023-05-21T08:18:02;18.51;81.05
68251;DHT22;55066;51.560;4.642;2023-05-21T08:20:28;18.35;79.91
68251;DHT22;55066;51.560;4.642;2023-05-21T08:22:55;18.53;81.13
68251;DHT22;55066;51.560;4.642;2023-05-21T08:25:22;18.51;81.01
68251;DHT22;55066;51.560;4.642;2023-05-21T08:27:47;18.86;79.47
68251;DHT22;55066;51.560;4.642;2023-05-21T08:30:13;19.21;79.01
68251;DHT22;55066;51.560;4.642;2023-05-21T08:32:39;19.36;78.86
68251;DHT22;55066;51.560;4.642;2023-05-21T08:35:05;19.87;76.67
68251;DHT22;55066;51.560;4.642;2023-05-21T08:37:43;19.80;77.31
68251;DHT22;55066;51.560;4.642;2023-05-21T08:40:17;19.50;77.98
68251;DHT22;55066;51.560;4.642;2023-05-21T08:42:50;18.80;80.69
68251;DHT22;55066;51.560;4.642;2023-05-21T08:45:21;19.02;80.43
68251;DHT22;55066;51.560;4.642;2023-05-21T08:47:54;19.54;79.47
68251;DHT22;55066;51.560;4.642;2023-05-21T08:50:20;19.58;78.60
68251;DHT22;55066;51.560;4.642;2023-05-21T08:52:47;19.02;80.11
68251;DHT22;55066;51.560;4.642;2023-05-21T08:55:14;19.72;78.53
68251;DHT22;55066;51.560;4.642;2023-05-21T08:57:42;19.48;78.73
68251;DHT22;55066;51.560;4.642;2023-05-21T09:00:09;19.54;79.44
68251;DHT22;55066;51.560;4.642;2023-05-21T09:02:36;19.27;80.23
68251;DHT22;55066;51.560;4.642;2023-05-21T09:05:05;19.36;80.01
68251;DHT22;55066;51.560;4.642;2023-05-21T09:07:33;19.34;79.93
68251;DHT22;55066;51.560;4.642;2023-05-21T09:11:10;19.10;80.88
68251;DHT22;55066;51.560;4.642;2023-05-21T09:13:19;19.73;79.72
68251;DHT22;55066;51.560;4.642;2023-05-21T09:15:46;19.94;79.44
68251;DHT22;55066;51.560;4.642;2023-05-21T09:18:13;19.66;79.30
68251;DHT22;55066;51.560;4.642;2023-05-21T09:21:26;19.82;80.00
68251;DHT22;55066;51.560;4.642;2023-05-21T09:23:55;20.06;78.73
68251;DHT22;55066;51.560;4.642;2023-05-21T09:26:21;21.37;76.87
68251;DHT22;55066;51.560;4.642;2023-05-21T09:28:48;21.77;75.16
68251;DHT22;55066;51.560;4.642;2023-05-21T09:31:13;20.82;76.96
68251;DHT22;55066;51.560;4.642;2023-05-21T09:33:45;20.09;78.31
68251;DHT22;55066;51.560;4.642;2023-05-21T09:36:17;20.51;79.24
68251;DHT22;55066;51.560;4.642;2023-05-21T09:38:44;20.26;77.98
68251;DHT22;55066;51.560;4.642;2023-05-21T09:41:10;20.62;77.00
68251;DHT22;55066;51.560;4.642;2023-05-21T09:43:37;21.40;77.80
68251;DHT22;55066;51.560;4.642;2023-05-21T09:46:03;21.36;77.22
68251;DHT22;55066;51.560;4.642;2023-05-21T09:51:16;21.50;76.99
68251;DHT22;55066;51.560;4.642;2023-05-21T09:53:55;21.06;77.90
68251;DHT22;55066;51.560;4.642;2023-05-21T09:56:25;21.62;76.17
68251;DHT22;55066;51.560;4.642;2023-05-21T09:58:55;21.24;77.58
68251;DHT22;55066;51.560;4.642;2023-05-21T10:01:22;22.57;76.01
68251;DHT22;55066;51.560;4.642;2023-05-21T10:03:58;22.26;74.49
68251;DHT22;55066;51.560;4.642;2023-05-21T10:06:26;22.51;75.69
68251;DHT22;55066;51.560;4.642;2023-05-21T10:08:54;22.12;76.48
68251;DHT22;55066;51.560;4.642;2023-05-21T10:11:25;21.75;76.28
68251;DHT22;55066;51.560;4.642;2023-05-21T10:14:04;22.10;77.38
68251;DHT22;55066;51.560;4.642;2023-05-21T10:16:32;22.26;77.43
68251;DHT22;55066;51.560;4.642;2023-05-21T10:18:57;21.77;75.01
68251;DHT22;55066;51.560;4.642;2023-05-21T10:21:27;21.92;75.93
68251;DHT22;55066;51.560;4.642;2023-05-21T10:23:54;22.43;75.57
68251;DHT22;55066;51.560;4.642;2023-05-21T10:26:23;23.01;73.95
68251;DHT22;55066;51.560;4.642;2023-05-21T10:28:54;22.51;73.95
68251;DHT22;55066;51.560;4.642;2023-05-21T10:31:21;22.56;73.78
68251;DHT22;55066;51.560;4.642;2023-05-21T10:33:47;22.79;75.38
68251;DHT22;55066;51.560;4.642;2023-05-21T10:36:15;22.01;74.36
68251;DHT22;55066;51.560;4.642;2023-05-21T10:38:43;22.02;76.31
68251;DHT22;55066;51.560;4.642;2023-05-21T10:41:10;21.99;77.57
68251;DHT22;55066;51.560;4.642;2023-05-21T10:43:40;21.26;77.67
68251;DHT22;55066;51.560;4.642;2023-05-21T10:54:26;23.50;75.42
68251;DHT22;55066;51.560;4.642;2023-05-21T10:59:41;22.10;74.04
68251;DHT22;55066;51.560;4.642;2023-05-21T11:02:08;23.43;75.81
68251;DHT22;55066;51.560;4.642;2023-05-21T11:04:35;23.66;74.67
68251;DHT22;55066;51.560;4.642;2023-05-21T11:07:04;22.81;73.86
68251;DHT22;55066;51.560;4.642;2023-05-21T11:09:30;23.46;72.48
68251;DHT22;55066;51.560;4.642;2023-05-21T11:11:57;24.01;72.56
68251;DHT22;55066;51.560;4.642;2023-05-21T11:14:55;23.38;74.25
68251;DHT22;55066;51.560;4.642;2023-05-21T11:17:38;23.82;72.54
68251;DHT22;55066;51.560;4.642;2023-05-21T11:20:10;23.01;74.16
68251;DHT22;55066;51.560;4.642;2023-05-21T11:22:37;23.56;73.52
68251;DHT22;55066;51.560;4.642;2023-05-21T11:25:05;23.16;73.63
68251;DHT22;55066;51.560;4.642;2023-05-21T11:27:40;23.91;73.20
68251;DHT22;55066;51.560;4.642;2023-05-21T11:30:07;24.32;71.68
68251;DHT22;55066;51.560;4.642;2023-05-21T11:32:37;25.28;70.59
68251;DHT22;55066;51.560;4.642;2023-05-21T11:35:12;24.22;71.68
68251;DHT22;55066;51.560;4.642;2023-05-21T11:37:41;24.22;70.12
68251;DHT22;55066;51.560;4.642;2023-05-21T11:40:35;24.25;72.87
68251;DHT22;55066;51.560;4.642;2023-05-21T11:43:01;23.50;72.22
68251;DHT22;55066;51.560;4.642;2023-05-21T11:45:28;24.60;70.47
68251;DHT22;55066;51.560;4.642;2023-05-21T11:47:56;24.30;71.78
68251;DHT22;55066;51.560;4.642;2023-05-21T11:50:23;23.97;71.35
68251;DHT22;55066;51.560;4.642;2023-05-21T11:52:49;23.78;72.53
68251;DHT22;55066;51.560;4.642;2023-05-21T11:55:20;23.63;73.47
68251;DHT22;55066;51.560;4.642;2023-05-21T11:57:47;24.69;70.98
68251;DHT22;55066;51.560;4.642;2023-05-21T12:00:17;25.08;71.32
68251;DHT22;55066;51.560;4.642;2023-05-21T12:02:44;25.66;68.36
68251;DHT22;55066;51.560;4.642;2023-05-21T12:05:10;24.95;71.30
68251;DHT22;55066;51.560;4.642;2023-05-21T12:07:36;24.28;70.32
68251;DHT22;55066;51.560;4.642;2023-05-21T12:10:03;25.31;71.36
68251;DHT22;55066;51.560;4.642;2023-05-21T12:12:30;25.94;71.20
68251;DHT22;55066;51.560;4.642;2023-05-21T12:14:57;25.62;72.06
68251;DHT22;55066;51.560;4.642;2023-05-21T12:17:23;25.22;71.72
68251;DHT22;55066;51.560;4.642;2023-05-21T12:19:53;24.70;72.18
68251;DHT22;55066;51.560;4.642;2023-05-21T12:22:19;24.04;73.77
68251;DHT22;55066;51.560;4.642;2023-05-21T12:24:45;23.78;76.18
68251;DHT22;55066;51.560;4.642;2023-05-21T12:27:16;25.03;73.50
68251;DHT22;55066;51.560;4.642;2023-05-21T12:29:43;25.14;70.70
68251;DHT22;55066;51.560;4.642;2023-05-21T12:32:11;25.50;71.82
68251;DHT22;55066;51.560;4.642;2023-05-21T12:34:52;24.88;71.68
68251;DHT22;55066;51.560;4.642;2023-05-21T12:37:25;24.91;72.84
68251;DHT22;55066;51.560;4.642;2023-05-21T12:39:53;25.55;71.50
68251;DHT22;55066;51.560;4.642;2023-05-21T12:42:26;25.86;70.17
68251;DHT22;55066;51.560;4.642;2023-05-21T12:44:52;25.38;72.73
68251;DHT22;55066;51.560;4.642;2023-05-21T12:47:22;25.76;71.86
68251;DHT22;55066;51.560;4.642;2023-05-21T12:49:49;25.93;71.77
68251;DHT22;55066;51.560;4.642;2023-05-21T12:52:18;25.96;70.69
68251;DHT22;55066;51.560;4.642;2023-05-21T12:54:51;26.20;70.67
68251;DHT22;55066;51.560;4.642;2023-05-21T12:57:22;25.69;71.46
68251;DHT22;55066;51.560;4.642;2023-05-21T12:59:58;26.47;68.33
68251;DHT22;55066;51.560;4.642;2023-05-21T13:04:59;24.59;73.17
68251;DHT22;55066;51.560;4.642;2023-05-21T13:07:27;23.64;72.71
68251;DHT22;55066;51.560;4.642;2023-05-21T13:09:57;24.29;75.90
68251;DHT22;55066;51.560;4.642;2023-05-21T13:12:26;25.24;70.67
68251;DHT22;55066;51.560;4.642;2023-05-21T13:15:00;25.55;71.24
68251;DHT22;55066;51.560;4.642;2023-05-21T13:17:27;25.74;70.08
68251;DHT22;55066;51.560;4.642;2023-05-21T13:20:09;25.65;69.75
68251;DHT22;55066;51.560;4.642;2023-05-21T13:22:39;26.48;70.68
68251;DHT22;55066;51.560;4.642;2023-05-21T13:25:07;26.68;67.34
68251;DHT22;55066;51.560;4.642;2023-05-21T13:27:33;26.82;67.98
68251;DHT22;55066;51.560;4.642;2023-05-21T13:29:58;25.34;69.70
68251;DHT22;55066;51.560;4.642;2023-05-21T13:32:24;26.69;68.92
68251;DHT22;55066;51.560;4.642;2023-05-21T13:34:49;26.14;70.44
68251;DHT22;55066;51.560;4.642;2023-05-21T13:37:15;25.97;69.93
68251;DHT22;55066;51.560;4.642;2023-05-21T13:39:40;26.72;70.23
68251;DHT22;55066;51.560;4.642;2023-05-21T13:42:07;26.51;66.28
68251;DHT22;55066;51.560;4.642;2023-05-21T13:44:32;26.56;69.82
68251;DHT22;55066;51.560;4.642;2023-05-21T13:47:04;25.48;71.09
68251;DHT22;55066;51.560;4.642;2023-05-21T13:49:35;26.47;71.94
68251;DHT22;55066;51.560;4.642;2023-05-21T13:52:00;26.76;68.90
68251;DHT22;55066;51.560;4.642;2023-05-21T13:54:27;26.07;69.28
68251;DHT22;55066;51.560;4.642;2023-05-21T13:56:52;25.43;69.89
68251;DHT22;55066;51.560;4.642;2023-05-21T13:59:18;25.34;70.20
68251;DHT22;55066;51.560;4.642;2023-05-21T14:01:43;26.42;72.12
68251;DHT22;55066;51.560;4.642;2023-05-21T14:04:10;27.14;68.47
68251;DHT22;55066;51.560;4.642;2023-05-21T14:06:35;25.76;68.92
68251;DHT22;55066;51.560;4.642;2023-05-21T14:09:00;26.69;68.62
68251;DHT22;55066;51.560;4.642;2023-05-21T14:11:30;26.82;68.71
68251;DHT22;55066;51.560;4.642;2023-05-21T14:14:02;26.05;70.41
68251;DHT22;55066;51.560;4.642;2023-05-21T14:16:28;26.18;69.75
68251;DHT22;55066;51.560;4.642;2023-05-21T14:18:54;25.39;69.85
68251;DHT22;55066;51.560;4.642;2023-05-21T14:21:20;24.74;74.46
68251;DHT22;55066;51.560;4.642;2023-05-21T14:23:46;25.15;69.87
68251;DHT22;55066;51.560;4.642;2023-05-21T14:26:14;25.31;69.35
68251;DHT22;55066;51.560;4.642;2023-05-21T14:28:41;25.74;72.07
68251;DHT22;55066;51.560;4.642;2023-05-21T14:31:07;26.93;68.66
68251;DHT22;55066;51.560;4.642;2023-05-21T14:33:34;25.84;69.34
68251;DHT22;55066;51.560;4.642;2023-05-21T14:36:19;26.28;70.91
68251;DHT22;55066;51.560;4.642;2023-05-21T14:38:45;26.78;70.53
68251;DHT22;55066;51.560;4.642;2023-05-21T14:41:11;26.89;71.01
68251;DHT22;55066;51.560;4.642;2023-05-21T14:43:36;26.18;69.13
68251;DHT22;55066;51.560;4.642;2023-05-21T14:46:02;25.79;73.30
68251;DHT22;55066;51.560;4.642;2023-05-21T14:48:27;25.97;69.79
68251;DHT22;55066;51.560;4.642;2023-05-21T14:50:53;26.52;71.35
68251;DHT22;55066;51.560;4.642;2023-05-21T14:53:21;26.89;70.18
68251;DHT22;55066;51.560;4.642;2023-05-21T14:55:46;25.79;69.38
68251;DHT22;55066;51.560;4.642;2023-05-21T14:58:12;26.13;70.35
68251;DHT22;55066;51.560;4.642;2023-05-21T15:00:37;26.42;69.97
68251;DHT22;55066;51.560;4.642;2023-05-21T15:03:03;26.10;69.54
68251;DHT22;55066;51.560;4.642;2023-05-21T15:05:31;25.39;71.13
68251;DHT22;55066;51.560;4.642;2023-05-21T15:07:56;25.97;70.27
68251;DHT22;55066;51.560;4.642;2023-05-21T15:10:23;26.18;69.86
68251;DHT22;55066;51.560;4.642;2023-05-21T15:12:49;26.69;68.98
68251;DHT22;55066;51.560;4.642;2023-05-21T15:15:14;26.48;68.79
68251;DHT22;55066;51.560;4.642;2023-05-21T15:17:41;26.60;68.46
68251;DHT22;55066;51.560;4.642;2023-05-21T15:20:07;26.75;67.84
68251;DHT22;55066;51.560;4.642;2023-05-21T15:22:33;26.13;69.02
68251;DHT22;55066;51.560;4.642;2023-05-21T15:24:59;25.86;68.05
68251;DHT22;55066;51.560;4.642;2023-05-21T15:27:26;27.14;70.71
68251;DHT22;55066;51.560;4.642;2023-05-21T15:29:53;27.35;66.78
68251;DHT22;55066;51.560;4.642;2023-05-21T15:32:18;26.82;71.71
68251;DHT22;55066;51.560;4.642;2023-05-21T15:34:48;27.70;69.41
68251;DHT22;55066;51.560;4.642;2023-05-21T15:37:14;26.62;66.41
68251;DHT22;55066;51.560;4.642;2023-05-21T15:39:41;27.37;66.95
68251;DHT22;55066;51.560;4.642;2023-05-21T15:42:06;28.27;66.95
68251;DHT22;55066;51.560;4.642;2023-05-21T15:44:35;28.88;63.56
68251;DHT22;55066;51.560;4.642;2023-05-21T15:47:00;27.86;65.19
68251;DHT22;55066;51.560;4.642;2023-05-21T15:49:25;27.40;66.46
68251;DHT22;55066;51.560;4.642;2023-05-21T15:51:51;28.61;67.26